Time;durP1;ratioP1;P1;durP2;ratioP2;P2;SDS_P1;SDS_P2;PMS_P1;PMS_P2;Temp;Humidity;BMP_temperature;BMP_pressure;BME280_temperature;BME280_humidity;BME280_pressure;Samples;Min_cycle;Max_cycle;Signal;HPM_P1;HPM_P2
2023/09/18 03:52:39;;;;;;;6.03;2.70;;;;;;;19.40;100.00;96774.91;5637771;23;20541;-77
2023/09/18 03:55:07;;;;;;;10.25;3.05;;;;;;;19.44;100.00;96781.22;4973772;28;20418;-77
2023/09/18 03:57:33;;;;;;;8.57;3.05;;;;;;;19.47;100.00;96783.25;4976244;28;20407;-79
2023/09/18 03:59:59;;;;;;;10.60;2.78;;;;;;;19.53;100.00;96791.94;4981789;28;20411;-77
2023/09/18 04:02:26;;;;;;;6.82;2.70;;;;;;;19.56;100.00;96792.06;4975643;28;20415;-77
2023/09/18 04:04:54;;;;;;;6.82;2.67;;;;;;;19.62;100.00;96796.16;4982868;28;20412;-79
2023/09/18 04:07:21;;;;;;;6.77;2.40;;;;;;;19.65;100.00;96792.03;4983610;28;20431;-77
2023/09/18 04:09:49;;;;;;;3.17;2.03;;;;;;;19.64;100.00;96780.50;4982172;28;20424;-78
2023/09/18 04:12:15;;;;;;;3.80;1.90;;;;;;;19.64;100.00;96777.03;4976814;28;20412;-76
2023/09/18 04:14:41;;;;;;;5.80;2.00;;;;;;;19.60;100.00;96760.00;4970839;28;20404;-76
2023/09/18 04:17:08;;;;;;;5.55;2.20;;;;;;;19.54;100.00;96761.31;4979938;28;20407;-78
2023/09/18 04:19:35;;;;;;;7.43;2.92;;;;;;;19.45;100.00;96749.78;4987153;28;20497;-78
2023/09/18 04:22:01;;;;;;;8.13;2.93;;;;;;;19.39;100.00;96740.34;4981359;28;20410;-78
2023/09/18 04:24:27;;;;;;;5.88;2.65;;;;;;;19.35;100.00;96732.16;4995562;28;20461;-77
2023/09/18 04:26:55;;;;;;;5.18;2.70;;;;;;;19.31;100.00;96726.66;4993317;28;20521;-76
2023/09/18 04:29:21;;;;;;;3.92;2.40;;;;;;;19.28;100.00;96707.72;4994422;28;20895;-78
2023/09/18 04:31:48;;;;;;;8.48;2.80;;;;;;;19.27;100.00;96701.56;4978466;28;20403;-76
2023/09/18 04:34:14;;;;;;;8.25;2.20;;;;;;;19.28;100.00;96694.28;4974496;28;20501;-76
2023/09/18 04:36:41;;;;;;;2.80;1.90;;;;;;;19.28;100.00;96659.41;4974714;28;20447;-78
2023/09/18 04:39:09;;;;;;;3.33;2.10;;;;;;;19.29;100.00;96647.56;4972075;28;20400;-75
2023/09/18 04:41:35;;;;;;;5.18;1.70;;;;;;;19.28;100.00;96665.56;4970817;28;21031;-75
2023/09/18 04:44:04;;;;;;;6.05;2.55;;;;;;;19.26;100.00;96680.41;4988929;28;20418;-76
2023/09/18 04:46:31;;;;;;;9.40;2.50;;;;;;;19.23;100.00;96659.59;4988355;28;20430;-75
2023/09/18 04:48:57;;;;;;;5.20;2.42;;;;;;;19.18;100.00;96649.81;4991935;28;20888;-76
2023/09/18 04:51:23;;;;;;;7.45;2.30;;;;;;;19.15;100.00;96661.22;4992810;28;20410;-75
2023/09/18 04:53:51;;;;;;;8.40;2.63;;;;;;;19.12;100.00;96666.44;4992132;28;20494;-75
2023/09/18 04:56:18;;;;;;;8.52;2.95;;;;;;;19.09;100.00;96675.16;4988568;28;20433;-77
2023/09/18 04:58:44;;;;;;;5.15;2.78;;;;;;;19.07;100.00;96685.41;4974645;28;20756;-75
2023/09/18 05:01:11;;;;;;;7.60;2.72;;;;;;;19.06;100.00;96689.97;4975860;28;20439;-77
2023/09/18 05:03:38;;;;;;;10.88;2.90;;;;;;;19.06;100.00;96691.88;4974600;28;20415;-76
2023/09/18 05:06:04;;;;;;;4.43;2.60;;;;;;;19.05;100.00;96676.88;4974398;28;20483;-77
2023/09/18 05:08:31;;;;;;;11.30;3.40;;;;;;;19.02;100.00;96664.91;4975482;28;20404;-78
2023/09/18 05:10:57;;;;;;;9.23;3.00;;;;;;;19.01;100.00;96668.72;4982533;28;20406;-77
2023/09/18 05:13:23;;;;;;;5.78;2.65;;;;;;;19.01;100.00;96663.34;4979274;28;20820;-77
2023/09/18 05:15:49;;;;;;;5.32;2.47;;;;;;;19.04;100.00;96670.72;4971703;28;20412;-77
2023/09/18 05:18:17;;;;;;;10.00;2.90;;;;;;;19.08;100.00;96678.94;4966125;28;20444;-77
2023/09/18 05:20:43;;;;;;;7.32;2.67;;;;;;;19.10;100.00;96692.78;4978511;28;20405;-77
2023/09/18 05:23:10;;;;;;;11.25;3.17;;;;;;;19.13;100.00;96710.94;4980456;28;20437;-77
2023/09/18 05:25:38;;;;;;;12.10;3.45;;;;;;;19.11;100.00;96721.97;4980786;28;20483;-77
2023/09/18 05:28:05;;;;;;;8.82;2.63;;;;;;;19.15;100.00;96711.41;4975715;28;20400;-77
2023/09/18 05:30:34;;;;;;;8.80;2.60;;;;;;;19.17;100.00;96701.91;4975849;28;20419;-77
2023/09/18 05:33:04;;;;;;;13.00;3.08;;;;;;;19.19;100.00;96688.97;4974660;28;20424;-77
2023/09/18 05:35:32;;;;;;;15.20;3.30;;;;;;;19.20;100.00;96698.59;4982697;28;20849;-78
2023/09/18 05:37:59;;;;;;;6.70;2.42;;;;;;;19.25;100.00;96701.09;4976067;28;20481;-78
2023/09/18 05:40:29;;;;;;;6.22;2.50;;;;;;;19.25;100.00;96709.13;4977860;28;20880;-78
2023/09/18 05:42:56;;;;;;;7.83;2.70;;;;;;;19.24;100.00;96707.59;4967750;28;20814;-78
2023/09/18 05:45:23;;;;;;;7.88;2.13;;;;;;;19.25;100.00;96714.50;4975830;28;20423;-78
2023/09/18 05:47:50;;;;;;;10.02;2.35;;;;;;;19.25;100.00;96727.91;4979296;28;20502;-78
2023/09/18 05:50:16;;;;;;;9.05;2.50;;;;;;;19.25;100.00;96711.81;4977636;28;20496;-78
2023/09/18 05:52:45;;;;;;;14.20;3.38;;;;;;;19.25;100.00;96711.03;4978825;28;20455;-78
2023/09/18 05:55:12;;;;;;;7.18;2.72;;;;;;;19.28;100.00;96705.03;4977712;28;20400;-78
2023/09/18 05:57:39;;;;;;;5.97;2.30;;;;;;;19.31;100.00;96704.41;4975715;28;20751;-78
2023/09/18 06:00:06;;;;;;;6.40;2.42;;;;;;;19.31;100.00;96702.50;4973228;28;20442;-77
2023/09/18 06:02:33;;;;;;;7.30;2.30;;;;;;;19.33;100.00;96700.25;4975026;28;20408;-78
2023/09/18 06:05:00;;;;;;;6.25;2.30;;;;;;;19.34;100.00;96696.47;4975383;28;20400;-79
2023/09/18 06:07:27;;;;;;;8.40;2.47;;;;;;;19.30;100.00;96690.19;4975256;28;20864;-78
2023/09/18 06:09:54;;;;;;;10.60;3.33;;;;;;;19.16;100.00;96681.59;4983621;28;20409;-78
2023/09/18 06:12:21;;;;;;;8.90;3.00;;;;;;;19.05;100.00;96679.56;4972674;28;20439;-78
2023/09/18 06:14:48;;;;;;;8.77;3.13;;;;;;;18.99;100.00;96680.84;4973833;28;20994;-78
2023/09/18 06:17:14;;;;;;;6.78;2.60;;;;;;;18.92;100.00;96692.09;4981785;28;20515;-78
2023/09/18 06:19:40;;;;;;;9.40;3.45;;;;;;;18.88;100.00;96689.25;4975953;28;20396;-78
2023/09/18 06:22:09;;;;;;;5.40;2.67;;;;;;;18.85;100.00;96695.28;4975541;28;20434;-78
2023/09/18 06:24:35;;;;;;;5.65;2.40;;;;;;;18.84;100.00;96690.22;4976665;28;20408;-78
2023/09/18 06:27:04;;;;;;;6.32;2.03;;;;;;;18.85;100.00;96699.84;4977601;28;20414;-78
2023/09/18 06:29:30;;;;;;;9.85;3.13;;;;;;;18.87;100.00;96694.94;4978607;28;20400;-78
2023/09/18 06:31:56;;;;;;;8.00;2.80;;;;;;;18.87;100.00;96700.28;4978115;28;20880;-78
2023/09/18 06:34:23;;;;;;;5.82;2.60;;;;;;;18.86;100.00;96702.22;4977433;28;20474;-78
2023/09/18 06:36:49;;;;;;;8.48;2.72;;;;;;;18.88;100.00;96701.88;4980154;28;20404;-78
2023/09/18 06:39:16;;;;;;;8.40;2.55;;;;;;;18.90;100.00;96689.72;4980355;28;20791;-79
2023/09/18 06:41:42;;;;;;;3.65;2.10;;;;;;;18.94;100.00;96692.56;4979824;28;20407;-78
2023/09/18 06:44:09;;;;;;;7.60;2.42;;;;;;;18.95;100.00;96702.94;4981794;28;20424;-79
2023/09/18 06:46:36;;;;;;;11.02;2.58;;;;;;;18.89;100.00;96701.56;4988826;28;20408;-79
2023/09/18 06:49:03;;;;;;;8.30;2.40;;;;;;;18.88;100.00;96712.59;4981192;28;20429;-79
2023/09/18 06:51:29;;;;;;;16.00;3.05;;;;;;;18.86;100.00;96710.25;4981729;28;20415;-78
2023/09/18 06:53:57;;;;;;;14.80;2.97;;;;;;;18.84;100.00;96704.41;4980754;28;20892;-78
2023/09/18 06:56:24;;;;;;;6.65;2.30;;;;;;;18.89;100.00;96719.53;4980096;28;20468;-78
2023/09/18 06:58:51;;;;;;;6.95;2.70;;;;;;;18.95;100.00;96720.94;4981953;28;20404;-79
2023/09/18 07:01:19;;;;;;;3.83;1.80;;;;;;;18.99;100.00;96724.56;4988600;28;20934;-77
2023/09/18 07:03:46;;;;;;;3.70;1.63;;;;;;;19.05;100.00;96728.63;4980913;28;20408;-78
2023/09/18 07:06:13;;;;;;;6.60;2.00;;;;;;;19.09;100.00;96718.06;4973917;28;20435;-78
2023/09/18 07:08:40;;;;;;;6.13;2.30;;;;;;;19.12;100.00;96720.09;4982345;28;20888;-79
2023/09/18 07:11:06;;;;;;;7.88;2.00;;;;;;;19.15;100.00;96728.31;4982005;28;20412;-77
2023/09/18 07:13:32;;;;;;;5.63;1.88;;;;;;;19.19;100.00;96723.84;4982179;28;20423;-78
2023/09/18 07:15:58;;;;;;;6.68;2.38;;;;;;;19.21;100.00;96718.94;4990142;28;20859;-79
2023/09/18 07:18:26;;;;;;;9.63;2.30;;;;;;;19.26;100.00;96713.41;4981738;28;20430;-79
2023/09/18 07:20:52;;;;;;;6.85;2.22;;;;;;;19.29;100.00;96704.72;4980496;28;20725;-79
2023/09/18 07:23:18;;;;;;;7.38;2.00;;;;;;;19.34;100.00;96704.53;4986603;28;20411;-80
2023/09/18 07:25:47;;;;;;;4.72;2.20;;;;;;;19.38;100.00;96712.72;4978030;28;20403;-80
2023/09/18 07:28:17;;;;;;;7.38;2.35;;;;;;;19.46;100.00;96711.09;4971032;28;20400;-80
2023/09/18 07:30:43;;;;;;;6.50;1.70;;;;;;;19.42;100.00;96710.16;4979705;28;20871;-79
2023/09/18 07:33:10;;;;;;;5.07;1.73;;;;;;;19.44;100.00;96713.31;4981195;28;20426;-79
2023/09/18 07:35:38;;;;;;;4.30;1.60;;;;;;;19.46;100.00;96716.47;4984095;28;20496;-80
2023/09/18 07:38:04;;;;;;;6.10;1.80;;;;;;;19.49;100.00;96730.06;4984700;28;20399;-78
2023/09/18 07:40:30;;;;;;;5.55;1.50;;;;;;;19.51;100.00;96737.78;4982430;28;20487;-80
2023/09/18 07:42:56;;;;;;;5.05;1.73;;;;;;;19.51;100.00;96743.94;4987249;28;20435;-79
2023/09/18 07:45:24;;;;;;;8.50;1.50;;;;;;;19.53;100.00;96752.47;4983391;28;20412;-80
2023/09/18 07:47:50;;;;;;;8.50;1.75;;;;;;;19.61;100.00;96759.69;4986870;28;20491;-81
2023/09/18 07:50:17;;;;;;;6.18;1.65;;;;;;;19.59;100.00;96763.81;4985172;28;20811;-81
2023/09/18 07:52:44;;;;;;;4.30;1.50;;;;;;;19.60;100.00;96770.75;4983984;28;20518;-80
2023/09/18 07:55:11;;;;;;;4.82;1.27;;;;;;;19.63;100.00;96770.88;4983700;28;20431;-80
2023/09/18 07:57:37;;;;;;;4.78;1.70;;;;;;;19.65;100.00;96776.72;4985652;28;20392;-81
2023/09/18 08:00:07;;;;;;;4.70;1.50;;;;;;;19.67;100.00;96760.28;4999216;28;20471;-81
2023/09/18 08:02:34;;;;;;;6.10;1.53;;;;;;;19.69;100.00;96758.88;5000754;28;20388;-80
2023/09/18 08:05:01;;;;;;;8.65;1.50;;;;;;;19.73;100.00;96763.56;4988233;28;20436;-83
2023/09/18 08:07:28;;;;;;;3.10;1.35;;;;;;;19.73;100.00;96768.94;4982856;28;20923;-78
2023/09/18 08:09:55;;;;;;;4.23;1.20;;;;;;;19.74;100.00;96771.31;4975240;28;20894;-77
2023/09/18 08:12:22;;;;;;;6.43;1.45;;;;;;;19.66;100.00;96789.03;4973147;28;20423;-78
2023/09/18 08:14:50;;;;;;;3.63;1.05;;;;;;;19.65;100.00;96778.63;4983082;28;20406;-79
2023/09/18 08:17:16;;;;;;;2.70;1.20;;;;;;;19.65;100.00;96782.09;4981282;28;20415;-79
2023/09/18 08:19:44;;;;;;;4.60;1.40;;;;;;;19.67;100.00;96790.63;4983451;28;20404;-79
2023/09/18 08:22:15;;;;;;;3.67;1.30;;;;;;;19.71;100.00;96788.06;4983116;28;20948;-79
2023/09/18 08:24:41;;;;;;;6.43;1.40;;;;;;;19.70;100.00;96798.00;4986266;28;20447;-79
2023/09/18 08:27:09;;;;;;;1.98;0.93;;;;;;;19.73;100.00;96815.38;4981547;28;20455;-80
2023/09/18 08:29:35;;;;;;;3.75;1.30;;;;;;;19.69;100.00;96836.75;4985597;28;20411;-79
2023/09/18 08:32:01;;;;;;;3.58;1.30;;;;;;;19.73;100.00;96836.88;4992477;28;20445;-79
2023/09/18 08:34:28;;;;;;;5.13;1.08;;;;;;;19.77;100.00;96832.44;4999486;28;20429;-79
2023/09/18 08:36:54;;;;;;;5.10;1.57;;;;;;;19.74;100.00;96835.75;4992245;28;20472;-79
2023/09/18 08:39:20;;;;;;;6.47;1.60;;;;;;;19.67;100.00;96841.63;4998170;28;20402;-80
2023/09/18 08:41:51;;;;;;;4.72;1.27;;;;;;;19.61;100.00;96829.50;4992868;28;20426;-80
2023/09/18 08:44:19;;;;;;;3.97;1.52;;;;;;;19.53;100.00;96835.69;4989472;28;20435;-80
2023/09/18 08:46:45;;;;;;;5.05;1.30;;;;;;;19.50;100.00;96840.91;4987645;28;20410;-80
2023/09/18 08:49:13;;;;;;;4.90;1.20;;;;;;;19.45;100.00;96841.84;4985989;28;20948;-79
2023/09/18 08:51:42;;;;;;;5.18;1.50;;;;;;;19.37;100.00;96833.81;4997129;28;20399;-80
2023/09/18 08:54:09;;;;;;;2.95;1.33;;;;;;;19.23;100.00;96837.50;4988242;28;20414;-80
2023/09/18 08:56:36;;;;;;;5.47;1.38;;;;;;;19.10;100.00;96832.28;4992532;28;20412;-79
2023/09/18 08:59:02;;;;;;;6.25;1.40;;;;;;;18.86;100.00;96838.97;4990400;28;21015;-79
2023/09/18 09:01:30;;;;;;;6.03;1.50;;;;;;;18.65;100.00;96853.31;4983926;28;20699;-80
2023/09/18 09:03:56;;;;;;;4.00;1.60;;;;;;;18.47;100.00;96861.34;4991114;28;20443;-80
2023/09/18 09:06:22;;;;;;;2.83;1.30;;;;;;;18.36;100.00;96878.03;4989829;28;20844;-79
2023/09/18 09:08:51;;;;;;;3.75;1.40;;;;;;;18.26;100.00;96878.34;4985243;28;20426;-80
2023/09/18 09:11:17;;;;;;;3.50;1.65;;;;;;;18.19;100.00;96882.25;4989790;28;20444;-79
2023/09/18 09:13:44;;;;;;;3.97;1.58;;;;;;;18.12;100.00;96883.81;4981658;28;20439;-80
2023/09/18 09:16:12;;;;;;;2.90;1.60;;;;;;;18.08;100.00;96902.41;4989470;28;20466;-81
2023/09/18 09:18:49;;;;;;;2.83;1.30;;;;;;;18.07;100.00;96889.31;4986395;28;20396;-81
2023/09/18 09:21:16;;;;;;;6.78;1.77;;;;;;;18.04;100.00;96893.41;4989647;28;20832;-81
2023/09/18 09:23:48;;;;;;;4.18;1.80;;;;;;;18.01;100.00;96901.28;4994977;28;20412;-81
2023/09/18 09:26:16;;;;;;;7.10;1.98;;;;;;;18.00;100.00;96905.84;4988257;28;20405;-81
2023/09/18 09:28:43;;;;;;;3.28;1.90;;;;;;;17.98;100.00;96908.03;4993274;28;20435;-81
2023/09/18 09:31:10;;;;;;;6.00;2.13;;;;;;;17.96;100.00;96918.28;4990245;28;20464;-81
2023/09/18 09:33:40;;;;;;;3.05;1.92;;;;;;;17.95;100.00;96915.91;4988402;28;20434;-79
2023/09/18 09:36:07;;;;;;;6.03;2.20;;;;;;;17.98;100.00;96910.72;4981003;28;20408;-80
2023/09/18 09:38:34;;;;;;;6.00;2.40;;;;;;;18.04;100.00;96903.34;4982866;28;20400;-77
2023/09/18 09:41:01;;;;;;;4.95;2.28;;;;;;;18.04;100.00;96906.78;4975053;28;20401;-78
2023/09/18 09:43:30;;;;;;;4.85;2.38;;;;;;;18.02;100.00;96890.25;4981710;28;20406;-79
2023/09/18 09:46:01;;;;;;;5.10;2.80;;;;;;;18.09;100.00;96908.56;4982105;28;20485;-81
2023/09/18 09:48:27;;;;;;;5.13;2.40;;;;;;;18.12;100.00;96911.38;4999859;28;20399;-81
2023/09/18 09:51:00;;;;;;;4.38;2.08;;;;;;;18.17;100.00;96903.22;4990230;28;20407;-81
2023/09/18 09:53:43;;;;;;;4.63;2.30;;;;;;;18.19;100.00;96929.72;4980494;28;20898;-80
2023/09/18 09:56:10;;;;;;;5.82;2.70;;;;;;;18.18;100.00;96912.84;4974519;28;20404;-78
2023/09/18 09:58:36;;;;;;;4.93;2.50;;;;;;;18.19;100.00;96905.59;4979048;28;20849;-78
2023/09/18 10:01:10;;;;;;;3.20;2.07;;;;;;;18.27;100.00;96904.81;4977026;28;20499;-78
2023/09/18 10:03:38;;;;;;;3.15;2.13;;;;;;;18.44;100.00;96912.88;4977181;28;20423;-78
2023/09/18 10:06:09;;;;;;;4.60;2.08;;;;;;;18.60;100.00;96923.19;4978474;28;20729;-77
2023/09/18 10:08:38;;;;;;;4.50;2.45;;;;;;;18.63;100.00;96919.88;4974594;28;20444;-78
2023/09/18 10:11:08;;;;;;;7.57;2.65;;;;;;;18.57;100.00;96926.50;4974142;28;20482;-77
2023/09/18 10:13:40;;;;;;;5.82;2.80;;;;;;;18.40;100.00;96919.97;4973225;28;20424;-78
2023/09/18 10:16:10;;;;;;;6.28;2.70;;;;;;;18.31;100.00;96919.16;4972923;28;20412;-77
2023/09/18 10:18:44;;;;;;;5.20;2.77;;;;;;;18.34;100.00;96937.31;4977657;28;20393;-78
2023/09/18 10:21:31;;;;;;;4.53;2.30;;;;;;;18.42;100.00;96984.75;4979936;28;20407;-79
2023/09/18 10:24:04;;;;;;;9.90;2.80;;;;;;;18.44;100.00;96982.56;4975060;28;20420;-78
2023/09/18 10:26:38;;;;;;;9.03;3.07;;;;;;;18.29;100.00;96988.34;4978893;28;20404;-77
2023/09/18 10:29:08;;;;;;;9.45;3.20;;;;;;;18.26;100.00;96986.31;4983804;28;20410;-78
2023/09/18 10:31:37;;;;;;;5.68;3.03;;;;;;;18.25;100.00;96983.94;4973946;28;20487;-78
2023/09/18 10:34:04;;;;;;;7.50;2.97;;;;;;;18.24;100.00;96982.34;4981827;28;20724;-78
2023/09/18 10:36:33;;;;;;;8.05;3.30;;;;;;;18.22;100.00;96981.84;4974214;28;20408;-78
2023/09/18 10:39:00;;;;;;;7.60;3.05;;;;;;;18.18;100.00;96985.19;4973092;28;20403;-78
2023/09/18 10:41:27;;;;;;;11.57;3.70;;;;;;;18.13;100.00;96996.00;4971657;28;20424;-78
2023/09/18 10:43:57;;;;;;;10.63;3.92;;;;;;;17.98;100.00;96985.69;4972517;28;20411;-77
2023/09/18 10:46:25;;;;;;;11.57;3.85;;;;;;;17.92;100.00;96976.22;4972548;28;20404;-78
2023/09/18 10:48:52;;;;;;;10.02;3.55;;;;;;;17.91;100.00;96973.84;4977473;28;20423;-77
2023/09/18 10:51:20;;;;;;;8.02;3.65;;;;;;;17.96;100.00;96961.13;4973438;28;20427;-78
2023/09/18 10:53:49;;;;;;;9.35;3.95;;;;;;;18.01;100.00;96955.63;4972463;28;20420;-78
2023/09/18 10:56:18;;;;;;;6.22;3.05;;;;;;;18.09;100.00;96954.09;4973349;28;20400;-77
2023/09/18 10:58:44;;;;;;;7.90;3.30;;;;;;;18.16;100.00;96949.06;4978150;28;20422;-77
2023/09/18 11:01:12;;;;;;;8.02;3.60;;;;;;;18.14;100.00;96949.38;4975792;28;20480;-79
2023/09/18 11:03:41;;;;;;;9.45;3.88;;;;;;;18.04;100.00;96936.25;4974695;28;20745;-77
2023/09/18 11:06:10;;;;;;;9.50;3.63;;;;;;;18.04;100.00;96935.47;4973665;28;20433;-77
2023/09/18 11:08:45;;;;;;;10.10;3.97;;;;;;;17.95;100.00;96932.78;4994821;28;20449;-78
2023/09/18 11:11:19;;;;;;;7.70;3.40;;;;;;;18.01;100.00;96950.28;4992916;28;20400;-78
2023/09/18 11:13:46;;;;;;;7.20;3.05;;;;;;;18.05;100.00;96948.53;4983479;28;21052;-83
2023/09/18 11:16:19;;;;;;;10.18;4.00;;;;;;;18.10;100.00;96944.97;4986249;28;20756;-81
2023/09/18 11:18:49;;;;;;;7.70;3.67;;;;;;;18.07;100.00;96949.03;4979731;28;20448;-79
2023/09/18 11:21:17;;;;;;;11.95;3.60;;;;;;;18.08;100.00;96966.69;4990482;28;20396;-80
2023/09/18 11:23:44;;;;;;;8.52;3.63;;;;;;;18.10;100.00;96947.63;4989908;28;20489;-81
2023/09/18 11:26:15;;;;;;;7.80;3.20;;;;;;;18.16;100.00;96949.88;4984876;28;20832;-82
2023/09/18 11:28:42;;;;;;;9.77;3.75;;;;;;;18.15;100.00;96916.13;4986225;28;20545;-82
2023/09/18 11:31:09;;;;;;;8.45;3.00;;;;;;;18.15;100.00;96920.69;4989679;28;20458;-80
2023/09/18 11:33:37;;;;;;;8.93;3.47;;;;;;;18.08;100.00;96933.75;4978565;28;20424;-81
2023/09/18 11:36:06;;;;;;;8.43;3.55;;;;;;;18.06;100.00;96934.06;4990482;28;20428;-80
2023/09/18 11:38:34;;;;;;;6.38;3.20;;;;;;;18.05;100.00;96948.53;4992202;28;20402;-81
2023/09/18 11:41:03;;;;;;;10.07;3.25;;;;;;;18.09;100.00;96970.94;4985439;28;20414;-82
2023/09/18 11:43:33;;;;;;;5.82;3.30;;;;;;;18.15;100.00;96960.88;4982463;28;20439;-82
2023/09/18 11:46:04;;;;;;;14.50;3.60;;;;;;;18.13;100.00;96952.34;4988052;28;20412;-81
2023/09/18 11:48:33;;;;;;;6.95;3.00;;;;;;;18.25;100.00;96957.13;4980634;28;20447;-83
2023/09/18 11:51:03;;;;;;;7.68;3.25;;;;;;;18.33;100.00;96967.88;4976335;28;20475;-83
2023/09/18 11:53:33;;;;;;;5.85;2.70;;;;;;;18.38;100.00;96959.69;4977372;28;20447;-83
2023/09/18 11:56:00;;;;;;;11.18;2.70;;;;;;;18.35;100.00;96967.56;4975323;28;20418;-83
2023/09/18 11:58:26;;;;;;;7.07;2.90;;;;;;;18.17;100.00;96962.16;4984683;28;20424;-82
2023/09/18 12:00:55;;;;;;;7.32;2.35;;;;;;;18.11;100.00;96960.72;4982426;28;20443;-81
2023/09/18 12:03:25;;;;;;;5.88;2.30;;;;;;;18.22;100.00;96966.56;4981763;28;20404;-84
2023/09/18 12:05:57;;;;;;;5.50;2.60;;;;;;;18.17;100.00;96980.13;4977578;28;20479;-84
2023/09/18 12:08:26;;;;;;;4.45;2.33;;;;;;;18.26;100.00;96985.50;4978369;28;20441;-82
2023/09/18 12:10:53;;;;;;;5.97;2.47;;;;;;;18.30;100.00;96983.78;4987445;28;20415;-81
2023/09/18 12:13:19;;;;;;;7.10;2.50;;;;;;;18.40;100.00;96975.47;4980094;28;20917;-83
2023/09/18 12:15:46;;;;;;;2.97;1.90;;;;;;;18.47;100.00;96952.47;4976147;28;20491;-78
2023/09/18 12:18:15;;;;;;;4.97;2.13;;;;;;;18.37;100.00;96950.06;4979515;28;20886;-78
2023/09/18 12:20:48;;;;;;;7.15;2.72;;;;;;;18.31;100.00;96947.84;4976535;28;20420;-78
2023/09/18 12:23:15;;;;;;;6.13;2.33;;;;;;;18.25;100.00;96949.91;4974110;28;20451;-78
2023/09/18 12:25:41;;;;;;;4.93;2.15;;;;;;;18.25;100.00;96955.25;4977521;28;20405;-81
2023/09/18 12:28:08;;;;;;;10.37;2.60;;;;;;;18.14;100.00;96949.38;4981649;28;20564;-80
2023/09/18 12:30:34;;;;;;;9.18;2.70;;;;;;;18.18;100.00;96945.00;4977773;28;20414;-82
2023/09/18 12:33:03;;;;;;;3.95;2.30;;;;;;;18.38;100.00;96938.25;4986264;28;20407;-81
2023/09/18 12:35:31;;;;;;;3.30;1.83;;;;;;;18.49;100.00;96936.84;5000177;28;20934;-79
2023/09/18 12:37:59;;;;;;;4.20;2.15;;;;;;;18.55;100.00;96940.97;4989988;28;20440;-81
2023/09/18 12:40:27;;;;;;;2.88;1.90;;;;;;;18.74;100.00;96938.03;4994735;28;20404;-78
2023/09/18 12:42:55;;;;;;;4.22;2.10;;;;;;;18.89;100.00;96939.47;4983930;28;20396;-80
2023/09/18 12:45:22;;;;;;;3.33;1.80;;;;;;;19.23;100.00;96933.31;4982067;28;20442;-78
2023/09/18 12:47:50;;;;;;;6.18;2.13;;;;;;;19.69;100.00;96951.41;4979662;28;20784;-79
2023/09/18 12:50:18;;;;;;;3.40;1.40;;;;;;;20.06;100.00;96950.66;4980769;28;20412;-80
2023/09/18 12:52:45;;;;;;;5.67;1.57;;;;;;;20.00;100.00;96945.75;4978417;28;20658;-78
2023/09/18 12:55:23;;;;;;;4.82;1.30;;;;;;;20.16;100.00;96932.56;4982883;28;20437;-78
2023/09/18 12:57:50;;;;;;;2.40;1.50;;;;;;;20.28;100.00;96930.81;4985329;28;20404;-80
2023/09/18 13:00:19;;;;;;;2.83;1.17;;;;;;;20.44;100.00;96939.91;4979377;28;20479;-79
2023/09/18 13:02:46;;;;;;;4.20;1.53;;;;;;;20.32;100.00;96933.63;4980216;28;20931;-80
2023/09/18 13:05:14;;;;;;;2.42;1.40;;;;;;;20.32;100.00;96941.69;4985388;28;20454;-80
2023/09/18 13:07:51;;;;;;;2.90;1.58;;;;;;;20.33;100.00;96949.44;4981903;28;20755;-80
2023/09/18 13:10:17;;;;;;;2.75;1.60;;;;;;;20.16;100.00;96919.94;4979460;28;20402;-80
2023/09/18 13:12:47;;;;;;;2.37;1.40;;;;;;;20.33;100.00;96919.06;4976892;28;20422;-78
2023/09/18 13:15:13;;;;;;;4.38;1.55;;;;;;;20.35;100.00;96917.66;4978826;28;20841;-78
2023/09/18 13:17:44;;;;;;;2.03;1.20;;;;;;;20.67;100.00;96912.72;4989220;28;20471;-79
2023/09/18 13:20:13;;;;;;;1.58;1.10;;;;;;;20.90;100.00;96908.56;4986013;28;20419;-81
2023/09/18 13:22:40;;;;;;;1.73;1.20;;;;;;;20.96;100.00;96918.03;4989524;28;20400;-79
2023/09/18 13:25:10;;;;;;;3.77;1.80;;;;;;;20.73;100.00;96914.09;4985596;28;20412;-80
2023/09/18 13:27:37;;;;;;;3.65;1.80;;;;;;;20.60;100.00;96909.78;4984818;28;20406;-80
2023/09/18 13:30:06;;;;;;;2.47;1.25;;;;;;;20.60;100.00;96918.59;4986273;28;20749;-79
2023/09/18 13:32:34;;;;;;;2.88;1.50;;;;;;;20.65;100.00;96912.25;4998906;28;20462;-80
2023/09/18 13:35:00;;;;;;;1.88;1.20;;;;;;;21.09;100.00;96900.81;4977090;28;20965;-79
2023/09/18 13:37:29;;;;;;;1.57;1.03;;;;;;;21.63;100.00;96922.34;4981973;28;20407;-80
2023/09/18 13:39:55;;;;;;;1.60;1.10;;;;;;;21.99;100.00;96922.44;4983669;28;20930;-79
2023/09/18 13:42:23;;;;;;;3.15;1.30;;;;;;;22.44;100.00;96909.94;4982079;28;20403;-79
2023/09/18 13:44:49;;;;;;;2.55;1.20;;;;;;;22.43;100.00;96901.06;4986659;28;20420;-81
2023/09/18 13:47:16;;;;;;;1.93;1.10;;;;;;;22.20;100.00;96889.19;4980019;28;20884;-79
2023/09/18 13:49:42;;;;;;;3.38;1.42;;;;;;;22.13;100.00;96902.44;4979089;28;20411;-81
2023/09/18 13:52:08;;;;;;;2.33;1.30;;;;;;;21.86;100.00;96882.31;4974987;28;21079;-79
2023/09/18 13:54:34;;;;;;;3.13;1.20;;;;;;;21.81;100.00;96887.88;4982672;28;20464;-79
2023/09/18 13:57:05;;;;;;;2.88;1.25;;;;;;;21.95;100.00;96897.22;4983241;28;20614;-80
2023/09/18 13:59:32;;;;;;;2.45;1.40;;;;;;;21.94;100.00;96886.81;4982922;28;20411;-79
2023/09/18 14:01:59;;;;;;;3.83;1.50;;;;;;;21.78;100.00;96892.06;4989012;28;20608;-78
2023/09/18 14:04:26;;;;;;;3.47;1.53;;;;;;;21.41;100.00;96877.75;4981349;28;20473;-78
2023/09/18 14:06:53;;;;;;;3.33;1.38;;;;;;;21.27;100.00;96869.19;4981818;28;21025;-79
2023/09/18 14:09:19;;;;;;;2.28;1.50;;;;;;;21.27;100.00;96879.16;4981748;28;20407;-80
2023/09/18 14:11:46;;;;;;;3.17;1.30;;;;;;;21.28;100.00;96869.94;4983433;28;20412;-80
2023/09/18 14:14:12;;;;;;;2.20;1.10;;;;;;;21.32;100.00;96876.25;4981700;28;20427;-79
2023/09/18 14:16:40;;;;;;;1.50;1.25;;;;;;;21.32;100.00;96873.56;4989056;28;20463;-78
2023/09/18 14:19:06;;;;;;;2.05;1.10;;;;;;;21.37;100.00;96884.09;4987462;28;20412;-78
2023/09/18 14:21:33;;;;;;;6.40;1.50;;;;;;;21.17;100.00;96838.06;4979036;28;20448;-79
2023/09/18 14:23:59;;;;;;;2.15;1.40;;;;;;;21.20;100.00;96845.47;4983050;28;20412;-78
2023/09/18 14:26:26;;;;;;;2.63;1.30;;;;;;;21.27;100.00;96871.88;4975806;28;20860;-78
2023/09/18 14:28:52;;;;;;;5.00;1.40;;;;;;;21.27;100.00;96855.72;4977044;28;20468;-80
2023/09/18 14:31:19;;;;;;;2.10;1.50;;;;;;;21.29;100.00;96856.16;4988123;28;20405;-79
2023/09/18 14:33:46;;;;;;;1.33;1.10;;;;;;;21.36;100.00;96872.53;4976911;28;20431;-80
2023/09/18 14:36:13;;;;;;;1.50;1.10;;;;;;;21.44;100.00;96881.66;4975722;28;20414;-79
2023/09/18 14:38:39;;;;;;;3.70;1.38;;;;;;;21.51;100.00;96844.19;4978167;28;20412;-80
2023/09/18 14:41:06;;;;;;;2.22;1.40;;;;;;;21.70;100.00;96851.75;4978401;28;20776;-81
2023/09/18 14:43:33;;;;;;;2.38;1.33;;;;;;;21.89;100.00;96868.94;4979878;28;20783;-81
2023/09/18 14:45:59;;;;;;;2.23;1.07;;;;;;;22.11;100.00;96845.38;4979389;28;20406;-81
2023/09/18 14:48:25;;;;;;;3.97;1.48;;;;;;;22.12;100.00;96818.06;4980864;28;20411;-81
2023/09/18 14:50:55;;;;;;;1.95;1.10;;;;;;;22.65;100.00;96826.94;4981281;28;20416;-79
2023/09/18 14:53:22;;;;;;;3.60;1.20;;;;;;;22.82;100.00;96815.91;4976587;28;20451;-79
2023/09/18 14:55:48;;;;;;;1.98;1.30;;;;;;;23.20;100.00;96823.47;4975015;28;20455;-80
2023/09/18 14:58:15;;;;;;;4.28;1.48;;;;;;;22.94;100.00;96788.06;4974884;28;20405;-79
2023/09/18 15:00:41;;;;;;;2.38;1.35;;;;;;;22.89;100.00;96774.81;4975290;28;20468;-79
2023/09/18 15:03:07;;;;;;;2.05;1.13;;;;;;;23.13;100.00;96782.78;4975612;28;20444;-79
2023/09/18 15:05:33;;;;;;;3.63;1.13;;;;;;;22.82;100.00;96767.31;4975705;28;20587;-78
2023/09/18 15:08:01;;;;;;;2.45;1.30;;;;;;;22.97;100.00;96773.88;4972660;28;20891;-79
2023/09/18 15:10:27;;;;;;;1.47;1.07;;;;;;;22.94;100.00;96771.88;4974216;28;20417;-79
2023/09/18 15:12:54;;;;;;;2.13;0.90;;;;;;;22.74;100.00;96760.94;4974496;28;20431;-78
2023/09/18 15:15:21;;;;;;;4.20;1.35;;;;;;;22.72;100.00;96763.16;4973487;28;20455;-78
2023/09/18 15:17:47;;;;;;;1.70;1.00;;;;;;;22.66;100.00;96774.56;4971855;28;20722;-78